Time;durP1;ratioP1;P1;durP2;ratioP2;P2;SDS_P1;SDS_P2;PMS_P1;PMS_P2;Temp;Humidity;BMP_temperature;BMP_pressure;BME280_temperature;BME280_humidity;BME280_pressure;Samples;Min_cycle;Max_cycle;Signal;HPM_P1;HPM_P2
2023/08/12 00:01:09;;;;;;;4.32;2.53;;;18.20;99.90;;;;;;4996980;28;20180;-80
2023/08/12 00:03:35;;;;;;;4.75;2.50;;;18.20;99.90;;;;;;4996928;28;20199;-80
2023/08/12 00:06:01;;;;;;;6.07;2.25;;;18.10;99.90;;;;;;4996393;28;20270;-80
2023/08/12 00:08:27;;;;;;;3.75;2.30;;;18.40;99.90;;;;;;4996415;28;20200;-80
2023/08/12 00:10:53;;;;;;;5.13;2.42;;;18.20;99.90;;;;;;4996791;28;20179;-80
2023/08/12 00:13:20;;;;;;;3.45;2.40;;;18.20;99.90;;;;;;5014045;28;20261;-80
2023/08/12 00:15:46;;;;;;;2.83;2.10;;;18.20;99.90;;;;;;5014115;28;20180;-80
2023/08/12 00:18:12;;;;;;;2.88;2.22;;;18.40;99.90;;;;;;5013992;28;20195;-80
2023/08/12 00:20:37;;;;;;;5.97;2.53;;;18.20;99.90;;;;;;5013708;28;20649;-80
2023/08/12 00:23:04;;;;;;;4.68;2.78;;;18.20;99.90;;;;;;4996010;28;20570;-80
2023/08/12 00:25:29;;;;;;;2.55;2.15;;;18.20;99.90;;;;;;4996317;28;20180;-80
2023/08/12 00:27:55;;;;;;;3.75;2.30;;;18.10;99.90;;;;;;4996161;28;20218;-80
2023/08/12 00:30:21;;;;;;;6.53;2.35;;;18.10;99.90;;;;;;4996131;28;20217;-80
2023/08/12 00:32:46;;;;;;;7.40;2.42;;;18.20;99.90;;;;;;5013960;28;20384;-80
2023/08/12 00:35:12;;;;;;;3.60;2.33;;;18.10;99.90;;;;;;4995955;28;20569;-80
2023/08/12 00:37:37;;;;;;;7.07;2.45;;;18.40;99.90;;;;;;5013385;28;20194;-80
2023/08/12 00:40:04;;;;;;;3.90;2.42;;;18.30;99.90;;;;;;5013509;28;20597;-80
2023/08/12 00:42:29;;;;;;;4.15;2.42;;;18.00;99.90;;;;;;4995761;28;20182;-79
2023/08/12 00:44:55;;;;;;;3.95;2.45;;;18.20;99.90;;;;;;5013235;28;20198;-79
2023/08/12 00:47:21;;;;;;;4.45;2.40;;;17.90;99.90;;;;;;4995468;28;20199;-79
2023/08/12 00:49:47;;;;;;;3.55;2.40;;;17.90;99.90;;;;;;4995332;28;20180;-79
2023/08/12 00:52:14;;;;;;;5.25;2.50;;;18.10;99.90;;;;;;4995521;28;20175;-80
2023/08/12 00:54:39;;;;;;;5.72;2.53;;;18.10;99.90;;;;;;5013314;28;20564;-80
2023/08/12 00:57:06;;;;;;;3.38;1.90;;;17.90;99.90;;;;;;5012765;28;20291;-79
2023/08/12 00:59:34;;;;;;;4.20;2.28;;;18.10;1.00;;;;;;4995454;28;20190;-79
2023/08/12 01:02:00;;;;;;;5.72;2.80;;;17.90;1.00;;;;;;5012529;28;20251;-80
2023/08/12 01:04:26;;;;;;;3.95;2.78;;;17.80;1.00;;;;;;4994773;28;20207;-81
2023/08/12 01:06:52;;;;;;;3.83;2.70;;;17.70;1.00;;;;;;4994864;28;20619;-80
2023/08/12 01:09:18;;;;;;;5.20;2.42;;;17.80;1.00;;;;;;4994938;28;20200;-80
2023/08/12 01:11:46;;;;;;;3.63;2.20;;;17.50;99.90;;;;;;4995288;28;20557;-80
2023/08/12 01:14:41;;;;;;;5.90;2.78;;;17.60;1.00;;;;;;4994996;28;20229;-80
2023/08/12 01:17:09;;;;;;;7.53;2.70;;;17.60;1.00;;;;;;4994693;28;20208;-80
2023/08/12 01:19:39;;;;;;;4.97;2.80;;;17.70;1.00;;;;;;5012537;28;20176;-80
2023/08/12 01:22:08;;;;;;;6.20;2.92;;;17.60;1.00;;;;;;4994945;28;20462;-80
2023/08/12 01:24:35;;;;;;;3.47;2.47;;;17.70;1.00;;;;;;5012409;28;20576;-80
2023/08/12 01:27:01;;;;;;;4.20;2.60;;;17.70;1.00;;;;;;5012112;28;20199;-80
2023/08/12 01:29:27;;;;;;;3.38;2.40;;;17.80;1.00;;;;;;5012401;28;20172;-80
2023/08/12 01:32:01;;;;;;;7.13;2.97;;;17.70;1.00;;;;;;4998472;28;20641;-80
2023/08/12 01:34:32;;;;;;;2.80;2.45;;;17.80;1.00;;;;;;4997326;28;20172;-80
2023/08/12 01:36:59;;;;;;;3.38;2.92;;;17.80;1.00;;;;;;5014634;28;20191;-80
2023/08/12 01:39:26;;;;;;;2.67;2.28;;;17.70;1.00;;;;;;4997338;28;20184;-80
2023/08/12 01:41:54;;;;;;;6.03;2.90;;;17.70;1.00;;;;;;5014277;28;20182;-80
2023/08/12 01:44:19;;;;;;;5.28;2.50;;;17.80;1.00;;;;;;5014278;28;20282;-80
2023/08/12 01:46:45;;;;;;;4.10;2.75;;;17.70;1.00;;;;;;5013735;28;20284;-80
2023/08/12 01:49:11;;;;;;;4.00;2.58;;;17.80;99.90;;;;;;5013856;28;20638;-80
2023/08/12 01:51:36;;;;;;;4.65;2.95;;;17.80;1.00;;;;;;5013488;28;20179;-80
2023/08/12 01:54:02;;;;;;;6.60;3.33;;;17.90;1.00;;;;;;4996129;28;20187;-80
2023/08/12 01:56:28;;;;;;;7.10;3.22;;;17.90;1.00;;;;;;4995105;28;20225;-80
2023/08/12 01:58:53;;;;;;;7.15;3.28;;;17.90;1.00;;;;;;4995470;28;20180;-80
2023/08/12 02:01:19;;;;;;;7.28;3.35;;;17.90;1.00;;;;;;5013339;28;20179;-80
2023/08/12 02:03:45;;;;;;;8.48;3.47;;;17.80;1.00;;;;;;5012860;28;20196;-79
2023/08/12 02:06:10;;;;;;;7.03;2.67;;;17.80;1.00;;;;;;5012824;28;20168;-80
2023/08/12 02:08:36;;;;;;;5.85;3.13;;;17.90;99.90;;;;;;5012640;28;20265;-80
2023/08/12 02:11:02;;;;;;;4.00;2.90;;;18.10;1.00;;;;;;4994850;28;20176;-80
2023/08/12 02:13:27;;;;;;;3.13;2.70;;;17.80;1.00;;;;;;4995041;28;20203;-80
2023/08/12 02:15:53;;;;;;;4.38;3.08;;;17.90;1.00;;;;;;4998581;28;20180;-80
2023/08/12 02:18:19;;;;;;;3.67;3.22;;;17.70;1.00;;;;;;4998485;28;20195;-81
2023/08/12 02:20:47;;;;;;;6.70;3.13;;;17.70;1.00;;;;;;4998239;28;20179;-81
2023/08/12 02:23:12;;;;;;;3.45;2.83;;;17.70;1.00;;;;;;5000527;28;20210;-80
2023/08/12 02:25:38;;;;;;;4.45;3.17;;;17.70;1.00;;;;;;5005413;28;20236;-80
2023/08/12 02:28:04;;;;;;;3.45;3.15;;;17.70;1.00;;;;;;5024123;28;20187;-80
2023/08/12 02:30:30;;;;;;;3.10;2.80;;;17.70;1.00;;;;;;5005860;28;20699;-80
2023/08/12 02:32:56;;;;;;;7.00;3.15;;;17.70;1.00;;;;;;5006348;28;20199;-80
2023/08/12 02:35:21;;;;;;;6.68;3.03;;;17.70;1.00;;;;;;5024295;28;20207;-81
2023/08/12 02:37:48;;;;;;;9.57;3.40;;;17.90;1.00;;;;;;5024494;28;20218;-82
2023/08/12 02:40:14;;;;;;;6.93;3.47;;;17.80;1.00;;;;;;5006438;28;20171;-80
2023/08/12 02:42:40;;;;;;;4.25;3.72;;;17.90;1.00;;;;;;5007589;28;20247;-80
2023/08/12 02:45:06;;;;;;;7.55;3.25;;;17.90;99.90;;;;;;5007505;28;20212;-81
2023/08/12 02:47:31;;;;;;;6.53;3.25;;;17.90;99.90;;;;;;5006508;28;20200;-81
2023/08/12 02:49:57;;;;;;;5.03;3.53;;;17.90;99.90;;;;;;5025271;28;20183;-80
2023/08/12 02:52:22;;;;;;;6.63;3.53;;;17.90;99.90;;;;;;5007699;28;20202;-81
2023/08/12 02:54:48;;;;;;;5.82;3.50;;;17.90;99.90;;;;;;5025058;28;20172;-80
2023/08/12 02:57:14;;;;;;;4.97;2.95;;;17.80;1.00;;;;;;5025200;28;20681;-80
2023/08/12 02:59:39;;;;;;;3.65;2.80;;;17.80;99.90;;;;;;5007603;28;20239;-80
2023/08/12 03:02:05;;;;;;;5.70;3.53;;;17.70;99.90;;;;;;5008399;28;20184;-81
2023/08/12 03:04:30;;;;;;;4.88;3.35;;;17.80;1.00;;;;;;5025431;28;20210;-81
2023/08/12 03:06:56;;;;;;;7.53;3.25;;;17.80;1.00;;;;;;5025406;28;20202;-80
2023/08/12 03:09:22;;;;;;;6.60;3.75;;;17.80;1.00;;;;;;5025957;28;20183;-81
2023/08/12 03:11:47;;;;;;;3.25;2.95;;;17.80;1.00;;;;;;5008585;28;20251;-80
2023/08/12 03:14:13;;;;;;;7.13;3.95;;;17.70;1.00;;;;;;5009134;28;20194;-81
2023/08/12 03:16:38;;;;;;;4.60;3.53;;;17.80;1.00;;;;;;5008395;28;20203;-83
2023/08/12 03:19:04;;;;;;;3.80;3.40;;;17.90;1.00;;;;;;5008935;28;20175;-82
2023/08/12 03:21:30;;;;;;;4.38;3.00;;;17.90;99.90;;;;;;5008984;28;20266;-80
2023/08/12 03:23:55;;;;;;;5.20;3.00;;;18.00;99.90;;;;;;5000433;28;20234;-80
2023/08/12 03:26:21;;;;;;;4.07;3.20;;;18.00;99.90;;;;;;5015909;28;20179;-80
2023/08/12 03:28:46;;;;;;;3.90;3.22;;;17.90;99.90;;;;;;5017695;28;20541;-80
2023/08/12 03:31:12;;;;;;;5.40;3.13;;;17.80;1.00;;;;;;5017968;28;20183;-80
2023/08/12 03:33:38;;;;;;;3.95;3.47;;;17.90;1.00;;;;;;5018227;28;20626;-80
2023/08/12 03:36:03;;;;;;;4.65;3.22;;;17.90;1.00;;;;;;4999716;28;20194;-80
2023/08/12 03:38:29;;;;;;;7.85;3.45;;;18.00;1.00;;;;;;5017951;28;20203;-80
2023/08/12 03:40:55;;;;;;;4.22;3.45;;;18.00;1.00;;;;;;5018207;28;20172;-81
2023/08/12 03:43:20;;;;;;;5.18;3.30;;;18.10;1.00;;;;;;5018162;28;20565;-80
2023/08/12 03:45:46;;;;;;;5.97;3.45;;;18.10;99.90;;;;;;4999680;28;20180;-79
2023/08/12 03:48:12;;;;;;;5.10;3.45;;;18.10;99.90;;;;;;4999974;28;20350;-81
2023/08/12 03:50:38;;;;;;;3.72;3.22;;;18.10;99.90;;;;;;5019530;28;20207;-79
2023/08/12 03:53:05;;;;;;;5.22;3.42;;;18.10;99.90;;;;;;4999032;28;20664;-81
2023/08/12 03:55:34;;;;;;;4.60;3.08;;;18.10;99.90;;;;;;5017074;28;20175;-81
2023/08/12 03:58:00;;;;;;;4.32;2.80;;;18.00;99.90;;;;;;5017374;28;20207;-80
2023/08/12 04:00:26;;;;;;;4.70;3.20;;;18.00;99.90;;;;;;4999060;28;20179;-80
2023/08/12 04:02:51;;;;;;;4.32;2.83;;;18.00;99.90;;;;;;4997798;28;20176;-80
2023/08/12 04:05:17;;;;;;;4.22;3.08;;;18.20;99.90;;;;;;5015477;28;20176;-80
2023/08/12 04:07:43;;;;;;;5.13;3.13;;;18.10;1.00;;;;;;4997533;28;20199;-81
2023/08/12 04:10:09;;;;;;;3.40;3.10;;;18.20;99.90;;;;;;5015315;28;20258;-80
2023/08/12 04:12:34;;;;;;;4.78;3.25;;;18.20;99.90;;;;;;4998032;28;20660;-80
2023/08/12 04:15:03;;;;;;;5.65;3.22;;;18.30;99.90;;;;;;5015100;28;20187;-80
2023/08/12 04:17:29;;;;;;;5.50;3.40;;;18.30;99.90;;;;;;5015002;28;20192;-82
2023/08/12 04:19:54;;;;;;;3.55;2.97;;;18.20;99.90;;;;;;5014759;28;20186;-80
2023/08/12 04:22:20;;;;;;;3.40;2.70;;;18.30;99.90;;;;;;4997339;28;20707;-82
2023/08/12 04:24:45;;;;;;;3.20;2.90;;;18.20;99.90;;;;;;4997266;28;20222;-80
2023/08/12 04:27:11;;;;;;;2.92;2.50;;;18.20;99.90;;;;;;5015015;28;20191;-80
2023/08/12 04:29:36;;;;;;;4.40;2.80;;;18.20;99.90;;;;;;4998926;28;20634;-79
2023/08/12 04:32:02;;;;;;;3.58;3.03;;;18.20;99.90;;;;;;5015957;28;20215;-80
2023/08/12 04:34:28;;;;;;;3.53;2.60;;;18.20;1.00;;;;;;5016018;28;20176;-80
2023/08/12 04:36:53;;;;;;;4.78;3.30;;;18.30;99.90;;;;;;4997586;28;20218;-80
2023/08/12 04:39:19;;;;;;;4.38;2.97;;;18.40;99.90;;;;;;4998307;28;20183;-80
2023/08/12 04:41:44;;;;;;;6.75;2.97;;;18.50;99.90;;;;;;4997831;28;20273;-80
2023/08/12 04:44:10;;;;;;;4.65;3.30;;;18.50;99.90;;;;;;4998150;28;20205;-80
2023/08/12 04:46:35;;;;;;;5.20;3.17;;;18.50;99.90;;;;;;4997877;28;20182;-80
2023/08/12 04:49:01;;;;;;;4.72;2.95;;;18.60;94.20;;;;;;4998193;28;20179;-81
2023/08/12 04:51:27;;;;;;;2.92;2.63;;;18.60;42.60;;;;;;5015526;28;20176;-82
2023/08/12 04:53:52;;;;;;;3.15;2.85;;;18.60;71.80;;;;;;4998085;28;20205;-80
2023/08/12 04:56:18;;;;;;;4.18;2.80;;;18.70;1.00;;;;;;4999461;28;20641;-80
2023/08/12 04:58:43;;;;;;;3.88;2.95;;;18.70;1.00;;;;;;5016272;28;20233;-80
2023/08/12 05:01:09;;;;;;;4.10;2.95;;;18.80;1.00;;;;;;4997650;28;20179;-80
2023/08/12 05:03:35;;;;;;;5.05;2.70;;;18.80;1.00;;;;;;4998187;28;20273;-81
2023/08/12 05:06:00;;;;;;;3.42;2.50;;;18.80;1.00;;;;;;4997732;28;20274;-81
2023/08/12 05:08:26;;;;;;;3.75;3.03;;;18.80;1.00;;;;;;4997586;28;20229;-80
2023/08/12 05:10:51;;;;;;;3.40;2.95;;;18.80;1.00;;;;;;5016256;28;20645;-80
2023/08/12 05:13:17;;;;;;;4.88;2.67;;;18.80;1.00;;;;;;4999056;28;20179;-81
2023/08/12 05:15:47;;;;;;;5.30;3.00;;;18.80;1.00;;;;;;4998541;28;20274;-81
2023/08/12 05:18:13;;;;;;;3.58;2.72;;;18.80;1.00;;;;;;4998529;28;20203;-80
2023/08/12 05:20:41;;;;;;;3.90;3.10;;;18.80;1.00;;;;;;4997868;28;20179;-80
2023/08/12 05:23:07;;;;;;;4.03;3.08;;;18.80;1.00;;;;;;4997261;28;20179;-80
2023/08/12 05:25:32;;;;;;;4.05;3.20;;;18.70;99.90;;;;;;4996350;28;20186;-79
2023/08/12 05:27:58;;;;;;;3.33;2.80;;;18.90;1.00;;;;;;4996641;28;20210;-80
2023/08/12 05:30:23;;;;;;;3.60;3.03;;;18.90;99.90;;;;;;4996932;28;20182;-80
2023/08/12 05:32:49;;;;;;;5.95;3.33;;;18.80;99.90;;;;;;4997992;28;20176;-80
2023/08/12 05:35:15;;;;;;;4.97;3.30;;;18.80;99.90;;;;;;4999374;28;20186;-80
2023/08/12 05:37:40;;;;;;;5.78;3.28;;;18.80;1.00;;;;;;4999740;28;20196;-80
2023/08/12 05:40:09;;;;;;;3.95;3.38;;;18.70;90.00;;;;;;5015762;28;20246;-81
2023/08/12 05:42:35;;;;;;;5.25;3.08;;;18.60;99.90;;;;;;4997765;28;20184;-80
2023/08/12 05:45:01;;;;;;;4.13;3.22;;;18.50;1.00;;;;;;5015984;28;20215;-80
2023/08/12 05:47:27;;;;;;;4.45;3.30;;;18.50;1.00;;;;;;4998320;28;20225;-80
2023/08/12 05:49:53;;;;;;;7.35;3.85;;;18.40;99.90;;;;;;4996152;28;20186;-80
2023/08/12 05:52:18;;;;;;;5.63;3.67;;;18.30;99.90;;;;;;4995771;28;20198;-80
2023/08/12 05:54:44;;;;;;;3.58;3.28;;;18.30;99.90;;;;;;5012911;28;20629;-81
2023/08/12 05:57:10;;;;;;;6.22;3.40;;;18.50;99.90;;;;;;4994915;28;20227;-81
2023/08/12 05:59:35;;;;;;;3.58;3.15;;;18.50;1.00;;;;;;4995178;28;20187;-81
2023/08/12 06:02:01;;;;;;;5.45;3.67;;;18.30;1.00;;;;;;5013041;28;20176;-79
2023/08/12 06:04:26;;;;;;;8.80;3.83;;;18.40;1.00;;;;;;5011620;28;20206;-80
2023/08/12 06:06:52;;;;;;;4.82;3.80;;;18.50;1.00;;;;;;4994073;28;20610;-80
2023/08/12 06:09:18;;;;;;;7.85;3.63;;;18.50;1.00;;;;;;5012745;28;20264;-80
2023/08/12 06:11:43;;;;;;;5.20;3.53;;;18.50;1.00;;;;;;5013139;28;20542;-82
2023/08/12 06:14:09;;;;;;;6.22;3.80;;;18.60;1.00;;;;;;5015447;28;20178;-82
2023/08/12 06:16:35;;;;;;;3.95;3.50;;;18.70;99.90;;;;;;5012791;28;20176;-80
2023/08/12 06:19:01;;;;;;;3.92;3.30;;;18.80;99.90;;;;;;4996103;28;20183;-82
2023/08/12 06:21:26;;;;;;;4.13;3.40;;;19.00;1.00;;;;;;4997020;28;20586;-81
2023/08/12 06:23:52;;;;;;;5.72;3.30;;;19.30;99.90;;;;;;4996610;28;20231;-83
2023/08/12 06:26:18;;;;;;;3.97;3.63;;;19.60;1.00;;;;;;5013671;28;20167;-81
2023/08/12 06:28:43;;;;;;;3.70;3.40;;;19.80;1.00;;;;;;4996589;28;20211;-82
2023/08/12 06:31:09;;;;;;;5.63;3.03;;;19.90;99.90;;;;;;4997467;28;20230;-82
2023/08/12 06:33:34;;;;;;;6.10;3.40;;;20.00;99.90;;;;;;4996847;28;20246;-82
2023/08/12 06:36:00;;;;;;;4.38;3.28;;;20.20;1.00;;;;;;5015126;28;20179;-82
2023/08/12 06:38:26;;;;;;;4.70;3.50;;;20.10;1.00;;;;;;4997232;28;20204;-80
2023/08/12 06:40:51;;;;;;;5.13;3.83;;;20.10;99.90;;;;;;4996791;28;20179;-79
2023/08/12 06:43:17;;;;;;;4.40;3.42;;;20.00;1.00;;;;;;4996059;28;20222;-80
2023/08/12 06:45:42;;;;;;;19.30;3.70;;;19.90;99.90;;;;;;4995462;28;20266;-79
2023/08/12 06:48:08;;;;;;;5.43;4.10;;;19.90;99.90;;;;;;5012806;28;20223;-80
2023/08/12 06:50:34;;;;;;;6.30;3.72;;;19.90;99.90;;;;;;4995430;28;20182;-79
2023/08/12 06:52:59;;;;;;;4.10;3.70;;;19.80;1.00;;;;;;5012889;28;20176;-80
2023/08/12 06:55:25;;;;;;;6.18;4.10;;;19.80;1.00;;;;;;4995080;28;20182;-80
2023/08/12 06:57:50;;;;;;;3.72;3.35;;;19.90;1.00;;;;;;5012945;28;20566;-79
2023/08/12 07:00:16;;;;;;;4.15;3.75;;;20.10;1.00;;;;;;4995433;28;20172;-80
2023/08/12 07:02:42;;;;;;;3.65;3.35;;;20.10;1.00;;;;;;4998732;28;20176;-79
2023/08/12 07:05:08;;;;;;;5.05;3.50;;;20.30;1.00;;;;;;5015863;28;20199;-80
2023/08/12 07:07:34;;;;;;;3.58;3.25;;;20.50;99.90;;;;;;4998528;28;20207;-81
2023/08/12 07:10:00;;;;;;;4.55;3.45;;;20.70;1.00;;;;;;5016153;28;20631;-80
2023/08/12 07:12:25;;;;;;;4.85;3.75;;;20.90;1.00;;;;;;4998490;28;20266;-80
2023/08/12 07:14:51;;;;;;;5.35;3.65;;;20.80;99.90;;;;;;5015987;28;20249;-79
2023/08/12 07:17:16;;;;;;;4.15;3.55;;;20.70;1.00;;;;;;5015758;28;20198;-79
2023/08/12 07:19:42;;;;;;;6.47;4.15;;;20.70;1.00;;;;;;4998546;28;20195;-79
2023/08/12 07:22:08;;;;;;;3.05;2.75;;;20.70;1.00;;;;;;4998572;28;20631;-79
2023/08/12 07:24:33;;;;;;;4.38;3.20;;;20.50;1.00;;;;;;4998143;28;20218;-79
2023/08/12 07:26:59;;;;;;;3.80;3.45;;;20.60;99.90;;;;;;5015798;28;20195;-80
2023/08/12 07:29:24;;;;;;;3.47;3.08;;;20.60;1.00;;;;;;4998973;28;20183;-80
2023/08/12 07:31:52;;;;;;;3.88;3.20;;;20.70;99.90;;;;;;4998537;28;20270;-80
2023/08/12 07:34:17;;;;;;;3.58;3.28;;;20.70;1.00;;;;;;4998211;28;20183;-79
2023/08/12 07:36:44;;;;;;;5.72;3.60;;;20.70;1.00;;;;;;5016356;28;20202;-83
2023/08/12 07:39:09;;;;;;;3.47;3.15;;;20.70;99.90;;;;;;4999262;28;20187;-81
2023/08/12 07:41:35;;;;;;;4.05;3.33;;;20.70;56.70;;;;;;4998171;28;20179;-80
2023/08/12 07:44:01;;;;;;;3.80;2.80;;;20.70;1.00;;;;;;5015934;28;20739;-81
2023/08/12 07:46:28;;;;;;;6.68;3.50;;;20.70;1.00;;;;;;4997517;28;20190;-80
2023/08/12 07:48:53;;;;;;;4.63;3.70;;;21.00;99.90;;;;;;5015579;28;20175;-81
2023/08/12 07:51:19;;;;;;;3.33;2.95;;;20.80;99.90;;;;;;5015607;28;20226;-80
2023/08/12 07:53:45;;;;;;;4.68;2.85;;;20.80;99.90;;;;;;5029758;28;20205;-81
2023/08/12 07:56:10;;;;;;;7.57;3.97;;;20.70;99.90;;;;;;5018565;28;20179;-79
2023/08/12 07:58:36;;;;;;;4.18;3.35;;;20.80;1.00;;;;;;5037144;28;20195;-81
2023/08/12 08:01:02;;;;;;;5.45;3.53;;;20.90;1.00;;;;;;5036763;28;20400;-80
2023/08/12 08:03:27;;;;;;;5.22;3.33;;;21.00;1.00;;;;;;5017893;28;20207;-79
2023/08/12 08:05:53;;;;;;;5.18;3.25;;;21.10;1.00;;;;;;5036478;28;20535;-81
2023/08/12 08:08:20;;;;;;;3.60;3.10;;;21.10;1.00;;;;;;5021885;28;20199;-80
2023/08/12 08:10:45;;;;;;;4.82;3.30;;;21.10;99.90;;;;;;5021523;28;20555;-80
2023/08/12 08:13:11;;;;;;;5.82;4.30;;;21.10;99.90;;;;;;5035889;28;20233;-80
2023/08/12 08:15:37;;;;;;;4.70;4.00;;;21.20;99.90;;;;;;5036220;28;20294;-79
2023/08/12 08:18:04;;;;;;;6.78;3.88;;;21.30;99.90;;;;;;5035690;28;20187;-80
2023/08/12 08:20:30;;;;;;;3.08;2.80;;;21.30;99.90;;;;;;5033812;28;20194;-80
2023/08/12 08:22:55;;;;;;;3.10;2.80;;;21.40;1.00;;;;;;5015466;28;20203;-80
2023/08/12 08:25:21;;;;;;;4.20;3.00;;;21.40;1.00;;;;;;5033325;28;20306;-80
2023/08/12 08:27:47;;;;;;;3.40;3.10;;;21.50;1.00;;;;;;5015592;28;20198;-79
2023/08/12 08:30:13;;;;;;;3.45;3.15;;;21.50;99.90;;;;;;5015558;28;20530;-80
2023/08/12 08:32:38;;;;;;;4.22;3.22;;;21.60;1.00;;;;;;5033372;28;20637;-80
2023/08/12 08:35:04;;;;;;;3.22;2.92;;;21.70;99.90;;;;;;5017020;28;20269;-80
2023/08/12 08:37:30;;;;;;;3.60;2.92;;;21.70;99.90;;;;;;5017454;28;20203;-79
2023/08/12 08:39:56;;;;;;;3.25;2.95;;;21.70;1.00;;;;;;5035175;28;20175;-80
2023/08/12 08:42:24;;;;;;;4.53;3.00;;;21.60;99.90;;;;;;5034788;28;20237;-79
2023/08/12 08:44:55;;;;;;;3.28;2.88;;;21.50;99.90;;;;;;5033567;28;20215;-79
2023/08/12 08:47:26;;;;;;;4.15;3.15;;;21.40;99.90;;;;;;5016404;28;20580;-80
2023/08/12 08:49:58;;;;;;;3.22;2.92;;;21.30;1.00;;;;;;5034225;28;20151;-80
2023/08/12 08:52:25;;;;;;;3.33;2.83;;;21.30;99.90;;;;;;5034159;28;20167;-79
2023/08/12 08:54:50;;;;;;;3.22;2.97;;;21.20;1.00;;;;;;5015759;28;20210;-79
2023/08/12 08:57:17;;;;;;;14.10;3.67;;;21.30;99.90;;;;;;5016073;28;20237;-79
2023/08/12 08:59:43;;;;;;;8.38;3.38;;;21.30;87.30;;;;;;5033612;28;20637;-79
2023/08/12 09:02:15;;;;;;;7.63;2.97;;;21.30;99.90;;;;;;5034069;28;20185;-79
2023/08/12 09:04:42;;;;;;;8.70;3.72;;;21.20;1.00;;;;;;5033684;28;20194;-79
2023/08/12 09:07:08;;;;;;;6.60;3.63;;;21.20;1.00;;;;;;5033531;28;20206;-79
2023/08/12 09:09:35;;;;;;;6.45;3.50;;;21.20;1.00;;;;;;5033533;28;20183;-80
2023/08/12 09:12:02;;;;;;;4.75;3.00;;;21.30;99.90;;;;;;5015901;28;20675;-79
2023/08/12 09:14:28;;;;;;;5.25;3.47;;;21.30;1.00;;;;;;5035744;28;20234;-82
2023/08/12 09:16:55;;;;;;;8.32;4.10;;;21.30;1.00;;;;;;5017050;28;20601;-79
2023/08/12 09:19:21;;;;;;;6.30;3.90;;;21.30;1.00;;;;;;5016203;28;20179;-81
2023/08/12 09:21:54;;;;;;;4.03;3.63;;;21.10;1.00;;;;;;5033699;28;20233;-80
2023/08/12 09:24:27;;;;;;;4.00;3.70;;;21.10;99.90;;;;;;5032829;28;20233;-79
2023/08/12 09:26:54;;;;;;;4.80;3.80;;;21.00;1.00;;;;;;5015649;28;20222;-79
2023/08/12 09:29:24;;;;;;;4.55;3.80;;;21.00;99.90;;;;;;5033405;28;20178;-79
2023/08/12 09:31:50;;;;;;;4.80;3.42;;;21.10;99.90;;;;;;5033481;28;20186;-79
2023/08/12 09:34:17;;;;;;;4.65;3.53;;;21.30;99.90;;;;;;5015250;28;20191;-79
2023/08/12 09:36:43;;;;;;;4.40;3.45;;;21.40;1.00;;;;;;5032773;28;20198;-79
2023/08/12 09:39:09;;;;;;;3.80;3.50;;;21.60;99.90;;;;;;5033343;28;20175;-80
2023/08/12 09:41:35;;;;;;;4.57;3.65;;;21.50;1.00;;;;;;5033620;28;20694;-79
2023/08/12 09:44:02;;;;;;;3.55;3.25;;;21.60;1.00;;;;;;5032748;28;20202;-79
2023/08/12 09:46:28;;;;;;;5.10;3.42;;;21.60;11.00;;;;;;5032823;28;20171;-79
2023/08/12 09:48:54;;;;;;;4.40;3.30;;;21.70;99.90;;;;;;5015543;28;20186;-79
2023/08/12 09:51:23;;;;;;;4.82;3.72;;;21.80;1.00;;;;;;5034076;28;20173;-80
2023/08/12 09:53:49;;;;;;;4.25;3.63;;;21.80;1.00;;;;;;5014696;28;20178;-79
2023/08/12 09:56:18;;;;;;;5.00;3.40;;;21.70;1.00;;;;;;5032445;28;20645;-79
2023/08/12 09:58:47;;;;;;;3.45;3.15;;;21.60;1.00;;;;;;5033086;28;20202;-79
2023/08/12 10:01:14;;;;;;;4.68;3.55;;;21.60;1.00;;;;;;5014971;28;20183;-79
2023/08/12 10:03:41;;;;;;;3.85;3.22;;;21.70;1.00;;;;;;5014832;28;20207;-84
2023/08/12 10:06:08;;;;;;;3.42;3.13;;;21.80;1.00;;;;;;5014906;28;20597;-79
2023/08/12 10:08:35;;;;;;;3.65;3.33;;;22.10;1.00;;;;;;5015077;28;20203;-79
2023/08/12 10:11:01;;;;;;;4.85;3.38;;;22.40;99.90;;;;;;5031969;28;20186;-79
2023/08/12 10:13:26;;;;;;;5.07;2.95;;;22.70;99.90;;;;;;5031477;28;20206;-79
2023/08/12 10:15:53;;;;;;;6.68;3.63;;;22.60;99.90;;;;;;5030988;28;20175;-78
2023/08/12 10:18:19;;;;;;;3.10;2.90;;;22.80;1.00;;;;;;5030421;28;20194;-79
2023/08/12 10:20:45;;;;;;;4.35;2.97;;;23.30;1.00;;;;;;5013450;28;20190;-79
2023/08/12 10:23:16;;;;;;;3.22;2.92;;;23.60;1.00;;;;;;5030631;28;20175;-79
2023/08/12 10:25:43;;;;;;;3.05;2.65;;;23.80;1.00;;;;;;5031484;28;20661;-79
2023/08/12 10:28:10;;;;;;;3.38;2.90;;;23.80;1.00;;;;;;5046417;28;20209;-79
2023/08/12 10:30:36;;;;;;;3.90;2.65;;;23.70;1.00;;;;;;5028411;28;20239;-78
2023/08/12 10:33:03;;;;;;;5.85;2.63;;;23.50;1.00;;;;;;5032516;28;20253;-79
2023/08/12 10:35:44;;;;;;;3.33;2.88;;;23.70;1.00;;;;;;5016565;28;20725;-79
2023/08/12 10:38:16;;;;;;;4.70;2.95;;;23.80;1.00;;;;;;5037048;28;20198;-79
2023/08/12 10:40:42;;;;;;;3.17;2.88;;;23.60;1.00;;;;;;5036726;28;20181;-78
2023/08/12 10:43:08;;;;;;;6.95;3.17;;;24.00;1.00;;;;;;5036805;28;20175;-79
2023/08/12 10:45:46;;;;;;;2.90;2.65;;;24.20;99.90;;;;;;5036206;28;20233;-79
2023/08/12 10:48:21;;;;;;;2.92;2.72;;;24.70;99.90;;;;;;5037935;28;20195;-79
2023/08/12 10:50:53;;;;;;;3.30;3.00;;;24.90;99.90;;;;;;5019023;28;20175;-79
2023/08/12 10:53:29;;;;;;;3.28;3.08;;;25.30;99.90;;;;;;5036252;28;20250;-79
2023/08/12 10:55:56;;;;;;;3.72;3.42;;;25.60;99.90;;;;;;5036043;28;20170;-80
2023/08/12 10:58:43;;;;;;;4.35;3.10;;;25.40;99.90;;;;;;5036054;28;20195;-80
2023/08/12 11:01:18;;;;;;;3.15;2.85;;;25.20;99.90;;;;;;5018430;28;20186;-79
2023/08/12 11:03:44;;;;;;;3.33;3.00;;;25.20;99.90;;;;;;5017602;28;20206;-79
2023/08/12 11:06:12;;;;;;;3.78;2.90;;;25.20;99.90;;;;;;5035196;28;20274;-79
2023/08/12 11:08:55;;;;;;;4.55;3.13;;;25.20;99.90;;;;;;5017425;28;20211;-79
2023/08/12 11:11:27;;;;;;;3.20;2.90;;;25.30;99.90;;;;;;5017371;28;20206;-79
2023/08/12 11:13:54;;;;;;;4.18;3.22;;;25.60;99.90;;;;;;5017084;28;20183;-79
2023/08/12 11:16:35;;;;;;;4.35;2.95;;;25.80;99.90;;;;;;5034748;28;20179;-79
2023/08/12 11:19:00;;;;;;;3.67;3.38;;;26.10;99.90;;;;;;5034684;28;20591;-79
2023/08/12 11:21:26;;;;;;;3.30;2.92;;;26.10;99.90;;;;;;5017642;28;20186;-79
2023/08/12 11:23:55;;;;;;;3.03;2.80;;;26.30;99.90;;;;;;5017303;28;20253;-79
2023/08/12 11:26:25;;;;;;;4.35;3.00;;;26.30;99.90;;;;;;5017310;28;20535;-80
2023/08/12 11:28:50;;;;;;;3.03;2.83;;;26.50;99.90;;;;;;5035452;28;20197;-79
2023/08/12 11:31:17;;;;;;;2.97;2.78;;;26.60;99.90;;;;;;5016889;28;20721;-79
2023/08/12 11:33:43;;;;;;;3.05;2.85;;;26.50;99.90;;;;;;5034585;28;20183;-79
2023/08/12 11:36:08;;;;;;;3.30;2.80;;;26.60;99.90;;;;;;5035117;28;20707;-80
2023/08/12 11:38:34;;;;;;;2.95;2.75;;;26.60;99.90;;;;;;5037034;28;20207;-78
2023/08/12 11:41:03;;;;;;;3.47;2.50;;;26.40;99.90;;;;;;5016815;28;20175;-80
2023/08/12 11:43:30;;;;;;;2.70;2.50;;;26.40;99.90;;;;;;5018650;28;20217;-78
2023/08/12 11:45:56;;;;;;;2.85;2.40;;;26.30;99.90;;;;;;5017203;28;20657;-79
2023/08/12 11:48:23;;;;;;;3.92;2.47;;;26.30;80.10;;;;;;5034013;28;20229;-80
2023/08/12 11:50:50;;;;;;;3.28;2.65;;;26.10;84.00;;;;;;5016586;28;20228;-79
2023/08/12 11:53:16;;;;;;;2.50;2.30;;;26.20;94.20;;;;;;5016311;28;20175;-79
2023/08/12 11:55:42;;;;;;;2.50;2.30;;;26.20;90.50;;;;;;5037566;28;20667;-81
2023/08/12 11:58:07;;;;;;;2.42;2.20;;;26.40;69.30;;;;;;5044956;28;20227;-80
2023/08/12 12:00:33;;;;;;;2.20;1.90;;;26.50;75.40;;;;;;5057812;28;20192;-80
2023/08/12 12:02:59;;;;;;;3.30;2.40;;;26.60;55.40;;;;;;5052105;28;20243;-79
2023/08/12 12:05:33;;;;;;;2.60;2.40;;;26.80;38.60;;;;;;5033184;28;20234;-78
2023/08/12 12:08:00;;;;;;;2.63;2.42;;;26.70;12.20;;;;;;5024754;28;20199;-80
2023/08/12 12:10:27;;;;;;;2.42;2.13;;;26.40;2.70;;;;;;5057865;28;20191;-81
2023/08/12 12:12:55;;;;;;;3.35;2.20;;;26.20;14.80;;;;;;5047141;28;20170;-79
2023/08/12 12:15:20;;;;;;;3.38;2.70;;;26.20;15.30;;;;;;5024704;28;20272;-78
2023/08/12 12:17:48;;;;;;;2.45;2.25;;;26.30;37.60;;;;;;5040374;28;20203;-80
2023/08/12 12:20:14;;;;;;;2.47;2.28;;;26.40;22.00;;;;;;5021056;28;20193;-79
2023/08/12 12:22:43;;;;;;;2.60;2.40;;;26.70;16.20;;;;;;5040237;28;20253;-79
2023/08/12 12:25:11;;;;;;;2.60;2.40;;;26.90;27.30;;;;;;5037148;28;20684;-79
2023/08/12 12:27:38;;;;;;;3.55;2.20;;;26.80;9.40;;;;;;5038195;28;20195;-81
2023/08/12 12:30:03;;;;;;;2.17;1.98;;;26.60;1.00;;;;;;5020867;28;20600;-79
2023/08/12 12:32:29;;;;;;;2.20;1.98;;;26.40;1.00;;;;;;5022820;28;20175;-80
2023/08/12 12:34:55;;;;;;;2.17;1.98;;;26.50;1.00;;;;;;5021600;28;20183;-79
2023/08/12 12:37:20;;;;;;;2.17;1.98;;;26.60;1.00;;;;;;5019419;28;20281;-79
2023/08/12 12:39:46;;;;;;;3.58;2.40;;;26.80;1.00;;;;;;5019363;28;20557;-80
2023/08/12 12:42:12;;;;;;;1.92;1.70;;;27.00;1.00;;;;;;5019669;28;20182;-79
2023/08/12 12:44:38;;;;;;;2.15;1.77;;;27.10;3.20;;;;;;5018814;28;20199;-81
2023/08/12 12:47:04;;;;;;;1.90;1.80;;;27.30;1.00;;;;;;5016968;28;20225;-80
2023/08/12 12:49:30;;;;;;;3.03;1.65;;;27.50;1.00;;;;;;5035600;28;20186;-80